createdAt,value
2018-12-08T00:00:02.881Z,92.54
2018-12-08T00:02:31.108Z,91.14
2018-12-08T00:04:59.311Z,91.64
2018-12-08T00:07:27.570Z,90.63
2018-12-08T00:09:55.788Z,91.40
2018-12-08T00:12:23.990Z,90.86
2018-12-08T00:14:52.286Z,90.80
2018-12-08T00:17:20.453Z,90.55
2018-12-08T00:19:48.681Z,89.54
2018-12-08T00:22:16.890Z,89.42
2018-12-08T00:24:45.121Z,90.15
2018-12-08T00:27:13.344Z,89.81
2018-12-08T00:29:41.551Z,89.64
2018-12-08T00:32:09.760Z,88.41
2018-12-08T00:34:37.972Z,89.26
2018-12-08T00:37:06.149Z,89.00
2018-12-08T00:39:34.392Z,88.69
2018-12-08T00:42:02.595Z,87.99
2018-12-08T00:44:30.772Z,88.09
2018-12-08T00:46:58.979Z,87.83
2018-12-08T00:49:27.188Z,87.91
2018-12-08T00:51:55.415Z,88.88
2018-12-08T00:54:23.680Z,89.13
2018-12-08T00:56:51.907Z,88.54
2018-12-08T00:59:20.124Z,89.00
2018-12-08T01:01:48.332Z,89.35
2018-12-08T01:04:16.576Z,90.25
2018-12-08T01:06:44.816Z,91.05
2018-12-08T01:09:13.011Z,90.40
2018-12-08T01:11:41.279Z,89.82
2018-12-08T01:14:09.497Z,90.01
2018-12-08T01:16:37.717Z,91.14
2018-12-08T01:19:05.935Z,91.47
2018-12-08T01:21:34.144Z,91.54
2018-12-08T01:24:02.343Z,91.57
2018-12-08T01:26:30.554Z,92.20
2018-12-08T01:28:58.756Z,91.72
2018-12-08T01:31:27.005Z,91.41
2018-12-08T01:33:55.208Z,91.18
2018-12-08T01:36:23.468Z,90.91
2018-12-08T01:38:51.687Z,90.79
2018-12-08T01:41:19.921Z,90.79
2018-12-08T01:43:48.133Z,90.78
2018-12-08T01:46:16.367Z,91.07
2018-12-08T01:48:44.575Z,90.86
2018-12-08T01:51:12.780Z,90.52
2018-12-08T01:53:41.298Z,90.37
2018-12-08T01:56:09.465Z,89.94
2018-12-08T01:58:37.679Z,90.10
2018-12-08T02:01:05.890Z,89.62
2018-12-08T02:03:34.117Z,89.97
2018-12-08T02:06:02.327Z,89.63
2018-12-08T02:08:30.567Z,88.85
2018-12-08T02:10:58.756Z,88.72
2018-12-08T02:13:27.030Z,88.44
2018-12-08T02:15:56.058Z,87.94
2018-12-08T02:18:24.236Z,87.84
2018-12-08T02:20:52.544Z,87.79
2018-12-08T02:23:20.893Z,87.50
2018-12-08T02:25:49.046Z,87.65
2018-12-08T02:28:17.266Z,88.14
2018-12-08T02:30:45.479Z,87.89
2018-12-08T02:33:13.708Z,87.33
2018-12-08T02:35:41.901Z,87.14
2018-12-08T02:38:10.117Z,86.80
2018-12-08T02:40:38.315Z,86.90
2018-12-08T02:43:06.550Z,87.00
2018-12-08T02:45:34.759Z,86.47
2018-12-08T02:48:02.985Z,86.46
2018-12-08T02:50:31.203Z,85.89
2018-12-08T02:52:59.447Z,86.96
2018-12-08T02:55:27.671Z,86.99
2018-12-08T02:57:55.906Z,86.99
2018-12-08T03:00:24.121Z,86.78
2018-12-08T03:02:52.326Z,86.04
2018-12-08T03:05:20.683Z,86.18
2018-12-08T03:07:48.887Z,86.20
2018-12-08T03:10:17.127Z,86.29
2018-12-08T03:12:45.331Z,85.50
2018-12-08T03:15:13.573Z,86.00
2018-12-08T03:17:41.777Z,85.47
2018-12-08T03:20:09.994Z,85.94
2018-12-08T03:22:38.196Z,85.99
2018-12-08T03:25:06.426Z,85.66
2018-12-08T03:27:34.636Z,85.18
2018-12-08T03:30:02.887Z,84.90
2018-12-08T03:32:31.101Z,83.99
2018-12-08T03:34:59.308Z,83.79
2018-12-08T03:37:27.561Z,84.24
2018-12-08T03:39:55.762Z,84.12
2018-12-08T03:42:23.968Z,82.46
2018-12-08T03:44:52.209Z,83.46
2018-12-08T03:47:20.421Z,82.81
2018-12-08T03:49:48.661Z,83.52
2018-12-08T03:52:16.875Z,83.24
2018-12-08T03:54:45.125Z,82.27
2018-12-08T03:57:13.358Z,83.30
2018-12-08T03:59:41.576Z,83.13
2018-12-08T04:02:09.811Z,83.04
2018-12-08T04:04:38.023Z,83.09
2018-12-08T04:07:06.254Z,82.99
2018-12-08T04:09:34.469Z,83.13
2018-12-08T04:12:02.705Z,82.93
2018-12-08T04:14:30.919Z,82.04
2018-12-08T04:16:59.144Z,82.85
2018-12-08T04:19:27.346Z,82.41
2018-12-08T04:21:55.569Z,82.38
2018-12-08T04:24:23.771Z,82.48
2018-12-08T04:26:51.992Z,81.60
2018-12-08T04:29:20.178Z,81.71
2018-12-08T04:31:48.452Z,82.63
2018-12-08T04:34:16.655Z,82.75
2018-12-08T04:36:44.905Z,82.64
2018-12-08T04:39:13.216Z,82.37
2018-12-08T04:41:41.333Z,82.48
2018-12-08T04:44:09.540Z,82.38
2018-12-08T04:46:37.763Z,82.51
2018-12-08T04:49:05.970Z,82.63
2018-12-08T04:51:34.179Z,82.61
2018-12-08T04:54:02.414Z,82.76
2018-12-08T04:56:30.624Z,82.44
2018-12-08T04:58:58.847Z,82.06
2018-12-08T05:01:27.076Z,82.77
2018-12-08T05:03:55.296Z,82.78
2018-12-08T05:06:23.557Z,82.08
2018-12-08T05:08:51.757Z,82.52
2018-12-08T05:11:26.850Z,82.40
2018-12-08T05:13:55.063Z,82.67
2018-12-08T05:16:23.301Z,82.86
2018-12-08T05:18:51.516Z,82.92
2018-12-08T05:21:19.737Z,82.82
2018-12-08T05:23:47.945Z,82.44
2018-12-08T05:26:16.202Z,82.96
2018-12-08T05:28:44.398Z,82.80
2018-12-08T05:31:12.655Z,82.60
2018-12-08T05:33:40.865Z,82.24
2018-12-08T05:36:09.069Z,82.16
2018-12-08T05:38:37.283Z,82.55
2018-12-08T05:41:05.503Z,82.59
2018-12-08T05:43:33.718Z,82.47
2018-12-08T05:46:01.907Z,81.44
2018-12-08T05:48:30.274Z,81.79
2018-12-08T05:50:58.498Z,81.94
2018-12-08T05:53:26.730Z,81.53
2018-12-08T05:55:54.926Z,81.71
2018-12-08T05:58:23.152Z,81.54
2018-12-08T06:00:51.336Z,80.77
2018-12-08T06:03:19.581Z,80.58
2018-12-08T06:05:47.801Z,81.11
2018-12-08T06:08:16.115Z,80.94
2018-12-08T06:10:44.355Z,80.88
2018-12-08T06:13:12.610Z,81.44
2018-12-08T06:15:40.807Z,80.55
2018-12-08T06:18:09.024Z,81.71
2018-12-08T06:20:37.238Z,81.35
2018-12-08T06:23:05.451Z,80.61
2018-12-08T06:25:35.914Z,80.19
2018-12-08T06:28:42.927Z,80.87
2018-12-08T06:31:11.148Z,80.43
2018-12-08T06:33:39.375Z,79.84
2018-12-08T06:36:07.570Z,80.39
2018-12-08T06:38:35.827Z,80.42
2018-12-08T06:41:04.009Z,80.52
2018-12-08T06:43:32.243Z,80.16
2018-12-08T06:46:00.461Z,80.16
2018-12-08T06:48:28.679Z,80.32
2018-12-08T06:50:56.876Z,80.57
2018-12-08T06:53:25.104Z,80.77
2018-12-08T06:55:53.310Z,80.84
2018-12-08T06:58:21.528Z,81.14
2018-12-08T07:00:49.725Z,80.82
2018-12-08T07:03:17.950Z,81.21
2018-12-08T07:05:46.169Z,81.16
2018-12-08T07:08:14.379Z,81.20
2018-12-08T07:10:42.574Z,80.95
2018-12-08T07:13:10.804Z,81.05
2018-12-08T07:15:39.011Z,81.44
2018-12-08T07:18:07.259Z,81.32
2018-12-08T07:20:35.469Z,81.35
2018-12-08T07:23:03.683Z,81.23
2018-12-08T07:25:31.880Z,81.55
2018-12-08T07:28:00.087Z,81.38
2018-12-08T07:30:28.330Z,81.54
2018-12-08T07:32:56.589Z,81.45
2018-12-08T07:35:24.781Z,81.10
2018-12-08T07:37:53.096Z,81.07
2018-12-08T07:40:21.216Z,81.19
2018-12-08T07:42:49.421Z,81.01
2018-12-08T07:45:17.665Z,81.37
2018-12-08T07:47:45.848Z,81.57
2018-12-08T07:50:14.065Z,81.56
2018-12-08T07:52:42.299Z,81.19
2018-12-08T07:55:10.501Z,80.63
2018-12-08T07:57:38.708Z,81.69
2018-12-08T08:00:12.315Z,81.57
2018-12-08T08:02:40.543Z,80.90
2018-12-08T08:05:09.644Z,80.53
2018-12-08T08:07:37.838Z,81.32
2018-12-08T08:10:09.134Z,81.52
2018-12-08T08:12:37.982Z,81.09
2018-12-08T08:15:08.638Z,80.14
2018-12-08T08:17:37.091Z,80.55
2018-12-08T08:20:07.020Z,79.44
2018-12-08T08:22:35.233Z,78.92
2018-12-08T08:25:03.508Z,80.36
2018-12-08T08:27:31.809Z,80.55
2018-12-08T08:29:59.926Z,80.39
2018-12-08T08:32:28.154Z,79.63
2018-12-08T08:34:56.372Z,79.69
2018-12-08T08:37:24.583Z,80.05
2018-12-08T08:39:52.813Z,79.85
2018-12-08T08:42:21.009Z,79.87
2018-12-08T08:44:49.233Z,80.24
2018-12-08T08:47:17.434Z,79.45
2018-12-08T08:49:45.659Z,79.86
2018-12-08T08:52:13.846Z,79.21
2018-12-08T08:54:42.090Z,79.36
2018-12-08T08:57:10.321Z,79.59
2018-12-08T08:59:38.568Z,79.35
2018-12-08T09:02:06.788Z,77.74
2018-12-08T09:04:35.076Z,78.20
2018-12-08T09:07:03.296Z,78.87
2018-12-08T09:09:31.505Z,78.64
2018-12-08T09:11:59.710Z,78.76
2018-12-08T09:14:27.938Z,78.50
2018-12-08T09:16:56.147Z,79.12
2018-12-08T09:19:24.372Z,78.39
2018-12-08T09:21:52.591Z,77.37
2018-12-08T09:24:20.787Z,78.01
2018-12-08T09:26:49.016Z,77.13
2018-12-08T09:29:17.222Z,77.90
2018-12-08T09:31:45.444Z,77.15
2018-12-08T09:34:13.657Z,76.28
2018-12-08T09:36:41.918Z,77.31
2018-12-08T09:39:10.120Z,76.56
2018-12-08T09:41:38.353Z,78.80
2018-12-08T09:44:06.580Z,77.78
2018-12-08T09:46:34.822Z,77.29
2018-12-08T09:49:03.041Z,77.06
2018-12-08T09:51:31.248Z,77.45
2018-12-08T09:53:59.482Z,77.22
2018-12-08T09:56:27.706Z,78.25
2018-12-08T09:58:55.883Z,78.38
2018-12-08T10:01:24.114Z,78.07
2018-12-08T10:03:52.327Z,77.28
2018-12-08T10:06:20.568Z,76.47
2018-12-08T10:08:48.798Z,78.06
2018-12-08T10:11:17.028Z,77.97
2018-12-08T10:13:45.229Z,77.98
2018-12-08T10:16:13.459Z,76.93
2018-12-08T10:18:41.682Z,77.21
2018-12-08T10:21:09.912Z,75.69
2018-12-08T10:23:38.147Z,76.72
2018-12-08T10:26:06.358Z,76.20
2018-12-08T10:28:34.560Z,75.81
2018-12-08T10:31:02.764Z,76.08
2018-12-08T10:33:30.988Z,76.15
2018-12-08T10:35:59.210Z,74.96
2018-12-08T10:38:27.442Z,76.14
2018-12-08T10:40:55.658Z,76.14
2018-12-08T10:43:23.875Z,75.51
2018-12-08T10:45:52.082Z,76.26
2018-12-08T10:48:20.313Z,74.57
2018-12-08T10:50:48.514Z,75.27
2018-12-08T10:53:16.745Z,75.46
2018-12-08T10:55:44.950Z,76.69
2018-12-08T10:58:13.216Z,75.06
2018-12-08T11:01:00.536Z,76.79
2018-12-08T11:03:29.563Z,75.84
2018-12-08T11:05:57.786Z,76.69
2018-12-08T11:08:25.995Z,75.57
2018-12-08T11:10:54.446Z,76.66
2018-12-08T11:13:22.868Z,76.02
2018-12-08T11:15:51.096Z,75.07
2018-12-08T11:18:19.318Z,76.13
2018-12-08T11:20:47.525Z,76.61
2018-12-08T11:23:15.773Z,76.31
2018-12-08T11:25:43.996Z,75.16
2018-12-08T11:28:12.232Z,76.65
2018-12-08T11:30:40.455Z,76.41
2018-12-08T11:33:08.673Z,75.81
2018-12-08T11:35:36.898Z,76.41
2018-12-08T11:38:05.107Z,75.65
2018-12-08T11:40:33.311Z,75.75
2018-12-08T11:43:01.545Z,75.57
2018-12-08T11:45:29.753Z,74.86
2018-12-08T11:47:58.010Z,75.77
2018-12-08T11:50:26.224Z,75.30
2018-12-08T11:52:54.428Z,75.24
2018-12-08T11:55:29.953Z,75.68
2018-12-08T11:57:50.901Z,74.16
2018-12-08T12:00:19.121Z,74.76
2018-12-08T12:02:47.334Z,76.19
2018-12-08T12:05:15.556Z,75.87
2018-12-08T12:07:43.751Z,75.84
2018-12-08T12:10:11.975Z,74.71
2018-12-08T12:12:40.182Z,75.59
2018-12-08T12:15:08.408Z,75.77
2018-12-08T12:17:36.592Z,75.38
2018-12-08T12:20:05.335Z,75.28
2018-12-08T12:22:33.543Z,75.69
2018-12-08T12:25:01.756Z,74.77
2018-12-08T12:27:29.966Z,74.57
2018-12-08T12:29:58.173Z,74.33
2018-12-08T12:32:26.375Z,74.42
2018-12-08T12:34:54.640Z,73.21
2018-12-08T12:37:22.838Z,75.15
2018-12-08T12:39:51.068Z,74.34
2018-12-08T12:42:19.273Z,75.18
2018-12-08T12:44:47.502Z,75.11
2018-12-08T12:47:15.696Z,74.42
2018-12-08T12:49:43.907Z,74.33
2018-12-08T12:52:12.118Z,74.63
2018-12-08T12:54:40.345Z,73.54
2018-12-08T12:57:08.536Z,74.77
2018-12-08T12:59:36.740Z,74.00
2018-12-08T13:02:04.982Z,73.61
2018-12-08T13:04:33.198Z,74.45
2018-12-08T13:07:01.423Z,73.28
2018-12-08T13:09:29.611Z,73.28
2018-12-08T13:11:57.847Z,74.14
2018-12-08T13:14:26.044Z,73.54
2018-12-08T13:16:54.269Z,74.38
2018-12-08T13:19:22.474Z,72.25
2018-12-08T13:21:50.685Z,73.94
2018-12-08T13:24:18.904Z,72.73
2018-12-08T13:26:47.109Z,72.73
2018-12-08T13:29:15.321Z,74.24
2018-12-08T13:31:43.551Z,73.89
2018-12-08T13:34:31.242Z,74.19
2018-12-08T13:36:59.484Z,73.81
2018-12-08T13:39:27.687Z,73.18
2018-12-08T13:41:55.909Z,74.08
2018-12-08T13:44:43.596Z,74.11
2018-12-08T13:47:11.880Z,74.18
2018-12-08T13:49:40.033Z,74.44
2018-12-08T13:52:08.239Z,74.34
2018-12-08T13:54:55.897Z,75.62
2018-12-08T13:57:24.145Z,77.50
2018-12-08T13:59:56.991Z,78.66
2018-12-08T14:02:25.391Z,78.73
2018-12-08T14:04:53.591Z,79.63
2018-12-08T14:07:21.817Z,80.38
2018-12-08T14:09:50.039Z,80.51
2018-12-08T14:12:18.271Z,81.07
2018-12-08T14:14:46.470Z,81.11
2018-12-08T14:17:14.689Z,81.20
2018-12-08T14:19:42.903Z,81.83
2018-12-08T14:22:12.902Z,82.36
2018-12-08T14:24:39.340Z,83.25
2018-12-08T14:27:07.541Z,82.89
2018-12-08T14:29:35.744Z,82.97
2018-12-08T14:32:03.967Z,83.70
2018-12-08T14:34:32.274Z,82.61
2018-12-08T14:37:00.496Z,83.29
2018-12-08T14:39:28.708Z,82.77
2018-12-08T14:41:56.911Z,84.18
2018-12-08T14:44:25.123Z,83.88
2018-12-08T14:46:53.317Z,84.33
2018-12-08T14:49:21.526Z,83.68
2018-12-08T14:51:49.717Z,84.54
2018-12-08T14:54:17.945Z,84.56
2018-12-08T14:56:46.155Z,85.60
2018-12-08T14:59:14.479Z,84.82
2018-12-08T15:01:42.599Z,84.79
2018-12-08T15:04:10.876Z,85.83
2018-12-08T15:06:39.021Z,85.18
2018-12-08T15:09:07.636Z,85.01
2018-12-08T15:11:35.833Z,84.87
2018-12-08T15:14:04.685Z,85.24
2018-12-08T15:16:32.889Z,85.08
2018-12-08T15:19:01.122Z,84.37
2018-12-08T15:21:29.392Z,84.21
2018-12-08T15:23:57.549Z,85.11
2018-12-08T15:26:25.736Z,85.10
2018-12-08T15:28:54.006Z,84.58
2018-12-08T15:31:22.199Z,84.73
2018-12-08T15:33:50.421Z,85.32
2018-12-08T15:36:18.616Z,85.21
2018-12-08T15:38:46.823Z,86.13
2018-12-08T15:41:15.014Z,85.84
2018-12-08T15:43:43.254Z,85.89
2018-12-08T15:46:11.455Z,86.08
2018-12-08T15:48:39.704Z,86.12
2018-12-08T15:51:07.981Z,85.38
2018-12-08T15:53:36.193Z,85.51
2018-12-08T15:56:04.436Z,85.76
2018-12-08T15:58:32.668Z,85.28
2018-12-08T16:01:00.921Z,84.97
2018-12-08T16:03:29.125Z,84.63
2018-12-08T16:05:57.357Z,84.92
2018-12-08T16:08:25.583Z,84.54
2018-12-08T16:10:53.808Z,84.28
2018-12-08T16:13:22.023Z,84.30
2018-12-08T16:15:50.236Z,83.40
2018-12-08T16:18:18.432Z,83.70
2018-12-08T16:20:46.659Z,83.34
2018-12-08T16:23:14.867Z,83.34
2018-12-08T16:25:43.109Z,83.35
2018-12-08T16:28:11.303Z,83.54
2018-12-08T16:30:39.577Z,82.96
2018-12-08T16:33:07.757Z,82.96
2018-12-08T16:35:35.972Z,83.00
2018-12-08T16:38:04.184Z,82.86
2018-12-08T16:40:32.411Z,82.54
2018-12-08T16:43:00.618Z,82.44
2018-12-08T16:45:28.804Z,82.38
2018-12-08T16:47:57.051Z,82.03
2018-12-08T16:50:25.271Z,82.00
2018-12-08T16:52:53.500Z,82.12
2018-12-08T16:55:21.684Z,82.15
2018-12-08T16:57:49.923Z,81.94
2018-12-08T17:00:18.147Z,81.82
2018-12-08T17:02:46.392Z,81.65
2018-12-08T17:05:14.596Z,81.36
2018-12-08T17:07:42.877Z,81.67
2018-12-08T17:10:11.018Z,81.44
2018-12-08T17:12:39.262Z,81.26
2018-12-08T17:15:07.455Z,81.07
2018-12-08T17:17:35.681Z,81.39
2018-12-08T17:20:04.657Z,81.21
2018-12-08T17:22:32.878Z,80.97
2018-12-08T17:25:01.074Z,80.71
2018-12-08T17:27:29.282Z,80.72
2018-12-08T17:29:57.502Z,80.37
2018-12-08T17:32:25.732Z,80.18
2018-12-08T17:34:53.952Z,80.08
2018-12-08T17:37:22.176Z,79.98
2018-12-08T17:39:50.389Z,80.41
2018-12-08T17:42:18.755Z,80.10
2018-12-08T17:44:46.980Z,79.26
2018-12-08T17:47:15.188Z,79.54
2018-12-08T17:49:43.400Z,80.13
2018-12-08T17:52:11.585Z,79.81
2018-12-08T17:54:39.808Z,79.93
2018-12-08T17:57:08.025Z,79.83
2018-12-08T17:59:36.392Z,79.58
2018-12-08T18:02:23.720Z,79.64
2018-12-08T18:04:51.927Z,79.64
2018-12-08T18:07:20.119Z,79.14
2018-12-08T18:09:48.329Z,79.66
2018-12-08T18:12:16.557Z,79.61
2018-12-08T18:14:44.764Z,79.29
2018-12-08T18:17:13.033Z,79.51
2018-12-08T18:19:41.255Z,78.47
2018-12-08T18:22:09.699Z,79.13
2018-12-08T18:24:37.672Z,79.23
2018-12-08T18:27:05.965Z,79.17
2018-12-08T18:29:34.258Z,79.14
2018-12-08T18:32:02.513Z,79.17
2018-12-08T18:34:30.788Z,79.50
2018-12-08T18:36:59.026Z,78.93
2018-12-08T18:39:27.262Z,79.25
2018-12-08T18:41:55.469Z,79.70
2018-12-08T18:44:23.981Z,79.64
2018-12-08T18:46:52.264Z,79.55
2018-12-08T18:49:20.438Z,79.59
2018-12-08T18:51:48.647Z,79.71
2018-12-08T18:54:16.886Z,79.45
2018-12-08T18:56:45.154Z,79.67
2018-12-08T18:59:13.372Z,79.92
2018-12-08T19:01:41.691Z,79.47
2018-12-08T19:04:09.958Z,79.72
2018-12-08T19:06:38.183Z,79.21
2018-12-08T19:09:06.833Z,79.71
2018-12-08T19:11:35.114Z,79.58
2018-12-08T19:14:03.484Z,79.31
2018-12-08T19:16:31.598Z,79.18
2018-12-08T19:18:59.828Z,79.34
2018-12-08T19:21:28.016Z,79.20
2018-12-08T19:23:56.234Z,79.10
2018-12-08T19:26:24.448Z,79.29
2018-12-08T19:28:52.676Z,78.83
2018-12-08T19:31:20.902Z,79.22
2018-12-08T19:33:49.147Z,79.23
2018-12-08T19:36:17.376Z,79.28
2018-12-08T19:38:45.582Z,79.07
2018-12-08T19:41:13.800Z,79.34
2018-12-08T19:43:41.996Z,79.10
2018-12-08T19:46:10.275Z,79.20
2018-12-08T19:48:57.920Z,79.04
2018-12-08T19:51:26.186Z,79.42
2018-12-08T19:53:54.436Z,79.55
2018-12-08T19:56:22.720Z,79.62
2018-12-08T19:58:50.911Z,79.66
2018-12-08T20:01:19.137Z,79.65
2018-12-08T20:03:47.325Z,79.64
2018-12-08T20:06:15.539Z,79.69
2018-12-08T20:08:43.763Z,79.69
2018-12-08T20:11:11.986Z,79.89
2018-12-08T20:13:40.322Z,79.62
2018-12-08T20:16:08.541Z,79.56
2018-12-08T20:18:36.747Z,79.80
2018-12-08T20:21:05.036Z,79.83
2018-12-08T20:23:33.272Z,79.82
2018-12-08T20:26:01.522Z,79.77
2018-12-08T20:28:29.754Z,79.92
2018-12-08T20:30:57.997Z,79.95
2018-12-08T20:33:26.224Z,80.49
2018-12-08T20:35:54.427Z,80.47
2018-12-08T20:38:22.637Z,80.82
2018-12-08T20:40:50.954Z,81.08
2018-12-08T20:43:19.256Z,80.97
2018-12-08T20:45:47.455Z,81.41
2018-12-08T20:48:15.677Z,81.51
2018-12-08T20:50:43.892Z,81.56
2018-12-08T20:53:12.136Z,82.11
2018-12-08T20:55:40.651Z,82.51
2018-12-08T20:58:08.873Z,82.34
2018-12-08T21:00:37.092Z,82.02
2018-12-08T21:03:05.350Z,82.71
2018-12-08T21:05:33.567Z,82.39
2018-12-08T21:08:01.793Z,82.16
2018-12-08T21:10:29.997Z,82.20
2018-12-08T21:12:58.229Z,82.20
2018-12-08T21:15:26.419Z,82.54
2018-12-08T21:17:54.664Z,82.46
2018-12-08T21:20:22.883Z,82.44
2018-12-08T21:22:51.125Z,83.05
2018-12-08T21:25:19.437Z,82.78
2018-12-08T21:27:47.708Z,83.18
2018-12-08T21:30:15.866Z,83.00
2018-12-08T21:32:44.077Z,83.11
2018-12-08T21:35:12.287Z,83.23
2018-12-08T21:37:40.495Z,83.01
2018-12-08T21:40:13.607Z,82.93
2018-12-08T21:42:41.814Z,83.00
2018-12-08T21:45:10.044Z,82.63
2018-12-08T21:47:38.264Z,82.91
2018-12-08T21:50:06.523Z,82.77
2018-12-08T21:52:34.796Z,82.88
2018-12-08T21:55:03.033Z,82.90
2018-12-08T21:57:31.248Z,82.71
2018-12-08T21:59:59.590Z,82.70
2018-12-08T22:02:27.802Z,83.10
2018-12-08T22:04:56.027Z,83.06
2018-12-08T22:07:24.251Z,82.89
2018-12-08T22:09:52.488Z,82.97
2018-12-08T22:12:20.702Z,82.97
2018-12-08T22:15:08.025Z,83.08
2018-12-08T22:17:36.250Z,82.99
2018-12-08T22:20:04.985Z,83.13
2018-12-08T22:22:33.162Z,83.46
2018-12-08T22:25:01.377Z,83.04
2018-12-08T22:27:29.589Z,83.13
2018-12-08T22:29:57.854Z,83.22
2018-12-08T22:32:26.062Z,83.29
2018-12-08T22:34:54.281Z,83.20
2018-12-08T22:37:22.491Z,83.14
2018-12-08T22:39:50.745Z,83.24
2018-12-08T22:42:19.049Z,83.48
2018-12-08T22:44:47.280Z,83.22
2018-12-08T22:47:15.519Z,83.32
2018-12-08T22:49:43.764Z,83.48
2018-12-08T22:52:11.971Z,83.33
2018-12-08T22:54:40.250Z,83.28
2018-12-08T22:57:08.428Z,83.19
2018-12-08T22:59:36.633Z,83.44
2018-12-08T23:02:04.900Z,83.63
2018-12-08T23:04:33.128Z,83.95
2018-12-08T23:07:04.422Z,83.87
2018-12-08T23:09:32.595Z,84.17
2018-12-08T23:12:00.817Z,84.75
2018-12-08T23:14:29.032Z,84.80
2018-12-08T23:16:57.288Z,84.50
2018-12-08T23:19:25.526Z,84.72
2018-12-08T23:21:53.758Z,84.47
2018-12-08T23:24:21.954Z,85.43
2018-12-08T23:26:50.177Z,85.47
2018-12-08T23:29:18.377Z,85.57
2018-12-08T23:31:46.601Z,85.82
2018-12-08T23:34:14.798Z,86.86
2018-12-08T23:36:43.039Z,86.73
2018-12-08T23:39:11.258Z,86.55
2018-12-08T23:41:39.489Z,87.57
2018-12-08T23:44:07.712Z,87.17
2018-12-08T23:46:35.945Z,87.74
2018-12-08T23:49:11.178Z,87.39
2018-12-08T23:51:32.462Z,87.40
2018-12-08T23:54:00.685Z,87.91
2018-12-08T23:56:28.911Z,87.68
2018-12-08T23:58:57.166Z,87.45
